Airfield :
LOGIN :

Register | Disclaimer

   EN    FR    IT 

 










Legend :    VFR   Marginal VFR   IFR   Intensive IFR   Very Intensive IFR
Visi :
Ceiling :
>= 8 km
>= 3000ft
5 to 8 km
1000 to 3000 ft
1500m to 5 km
500 to 1000 ft
800 to 1500m
200 to 500 ft
< 800m
< 200 ft
Symbols :   Thunderstorms  Fog  Heavy snow  Heavy precipitations  Wind > 20 kt
SIGMETs :     Misc.  Thunderstorms  Icing  Turbulence  Mountain Waves  Volcanic Ashes






- Airport Elevation : 24 ft
- IATA code : IBZ


LEIB - Ibiza

CURRENT METAR :
  • 280230Z 05006KT 9999 SCT015 20/17 Q1018 NOSIG

EXPIRED METARs :
  • 280200Z 04007KT 9999 FEW015 20/17 Q1018 NOSIG
  • 280130Z 04007KT 9999 SCT015 20/17 Q1018 NOSIG
  • 280100Z 04007KT 9999 FEW014 20/17 Q1018 NOSIG
  • 280030Z 04007KT CAVOK 20/17 Q1018 NOSIG
  • 280000Z 04009KT CAVOK 21/17 Q1018 NOSIG
  • 272330Z 02007KT CAVOK 21/17 Q1017 NOSIG
  • 272300Z 04006KT CAVOK 21/16 Q1017 NOSIG
  • 272230Z 02006KT 350V050 CAVOK 22/14 Q1017 NOSIG

TAF TAF LEIB
Valid from the 28 at 03:00 until the 29 at 03:00 UTC


280200Z 2803/2903 04009KT 9999 FEW010 TX25/2812Z TN17/2805Z
BECMG 2806/2808 09010KT
BECMG 2817/2819 VRB03KT
PROB30
TEMPO 2900/2903 4000 BR BKN010



MET'MAP, your aeronautical weather chart ! - Copyright ORBIFLY December 2007 - Disclaimer

ORBIFLY MET'MAP TEAM :

Programming & Development : Alexandra Zaïnal
Original concept : Baudouin d'Aumeries
Technical & hardware support : Manuel Goepfert
Assistance : Marc-Olivier Méhu




SOURCES & CREDITS :

   NOAA